Time;durP1;ratioP1;P1;durP2;ratioP2;P2;SDS_P1;SDS_P2;PMS_P1;PMS_P2;Temp;Humidity;BMP_temperature;BMP_pressure;BME280_temperature;BME280_humidity;BME280_pressure;Samples;Min_cycle;Max_cycle;Signal;HPM_P1;HPM_P2
2022/04/19 00:00:53;;;;;;;6.75;4.22;;;15.40;54.80;;;;;;5046534;28;20039;-61
2022/04/19 00:03:19;;;;;;;6.15;4.00;;;15.40;54.90;;;;;;5081421;28;20048;-61
2022/04/19 00:05:44;;;;;;;6.32;4.05;;;15.30;54.80;;;;;;5082759;28;20050;-60
2022/04/19 00:08:11;;;;;;;9.57;4.28;;;15.30;55.00;;;;;;5082661;28;20102;-61
2022/04/19 00:10:36;;;;;;;6.22;3.63;;;15.30;55.00;;;;;;5081674;28;20193;-60
2022/04/19 00:13:03;;;;;;;6.75;4.40;;;15.50;55.30;;;;;;5081060;28;20446;-60
2022/04/19 00:15:29;;;;;;;6.95;5.65;;;15.20;55.10;;;;;;5031129;28;20020;-60
2022/04/19 00:17:59;;;;;;;5.75;4.28;;;15.20;55.20;;;;;;5082107;28;20109;-61
2022/04/19 00:20:25;;;;;;;7.80;5.22;;;15.10;55.20;;;;;;5083079;28;20074;-60
2022/04/19 00:22:51;;;;;;;8.25;4.63;;;15.10;55.30;;;;;;5063794;28;20113;-60
2022/04/19 00:25:17;;;;;;;7.55;3.85;;;15.10;55.40;;;;;;5080604;28;20035;-60
2022/04/19 00:27:43;;;;;;;6.10;3.50;;;15.10;55.50;;;;;;5081087;28;20039;-60
2022/04/19 00:30:09;;;;;;;4.72;3.90;;;15.10;55.50;;;;;;5060395;28;20369;-61
2022/04/19 00:32:34;;;;;;;10.43;4.45;;;15.00;55.50;;;;;;5061397;28;20190;-60
2022/04/19 00:35:01;;;;;;;10.73;4.95;;;15.00;55.60;;;;;;5081142;28;20442;-60
2022/04/19 00:37:26;;;;;;;6.25;4.55;;;15.00;55.60;;;;;;5081008;28;20028;-60
2022/04/19 00:39:53;;;;;;;6.13;4.63;;;14.90;55.60;;;;;;5080416;28;20028;-60
2022/04/19 00:42:18;;;;;;;7.55;4.55;;;14.90;55.70;;;;;;5063140;28;20321;-61
2022/04/19 00:44:44;;;;;;;8.10;4.80;;;15.00;55.80;;;;;;5066406;28;20043;-60
2022/04/19 00:47:09;;;;;;;5.47;4.18;;;14.90;55.80;;;;;;5084488;28;20039;-60
2022/04/19 00:49:36;;;;;;;7.95;4.28;;;14.90;55.80;;;;;;5063930;28;20055;-61
2022/04/19 00:52:02;;;;;;;6.60;4.22;;;14.80;55.80;;;;;;5067151;28;20166;-61
2022/04/19 00:54:27;;;;;;;8.85;5.00;;;14.80;55.90;;;;;;5066927;28;20131;-61
2022/04/19 00:56:55;;;;;;;5.00;4.15;;;14.80;55.90;;;;;;5065628;28;20089;-61
2022/04/19 00:59:21;;;;;;;6.00;3.78;;;14.80;56.00;;;;;;5083227;28;20027;-61
2022/04/19 01:01:47;;;;;;;8.98;4.45;;;14.80;56.00;;;;;;5084878;28;20523;-60
2022/04/19 01:04:12;;;;;;;5.70;4.13;;;14.80;56.10;;;;;;5050657;28;20056;-60
2022/04/19 01:06:38;;;;;;;8.10;4.00;;;14.70;56.10;;;;;;5068166;28;20024;-60
2022/04/19 01:09:03;;;;;;;6.93;4.32;;;14.70;56.30;;;;;;5085153;28;20661;-60
2022/04/19 01:14:14;;;;;;;15.15;6.47;;;14.70;56.40;;;;;;5055688;28;20101;-60
2022/04/19 01:16:41;;;;;;;10.73;5.32;;;14.70;56.50;;;;;;5084395;28;20039;-61
2022/04/19 01:19:14;;;;;;;8.30;4.68;;;14.60;56.50;;;;;;5049812;28;20043;-61
2022/04/19 01:21:57;;;;;;;6.28;5.10;;;14.60;56.60;;;;;;5064693;28;20487;-61
2022/04/19 01:24:23;;;;;;;8.70;4.85;;;14.50;56.70;;;;;;5067672;28;20491;-61
2022/04/19 01:26:49;;;;;;;8.15;4.63;;;14.60;56.80;;;;;;5050218;28;20115;-60
2022/04/19 01:29:15;;;;;;;7.22;4.88;;;14.50;56.90;;;;;;5085698;28;20543;-60
2022/04/19 01:31:41;;;;;;;8.25;4.88;;;14.40;56.90;;;;;;5050592;28;20163;-60
2022/04/19 01:34:06;;;;;;;7.35;5.20;;;14.40;57.70;;;;;;5065264;28;20098;-61
2022/04/19 01:36:36;;;;;;;6.78;5.10;;;14.40;57.10;;;;;;5067512;28;20474;-61
2022/04/19 01:39:03;;;;;;;12.52;6.30;;;14.30;57.20;;;;;;5084098;28;20040;-60
2022/04/19 01:41:29;;;;;;;7.43;5.45;;;14.30;57.30;;;;;;5084313;28;20090;-61
2022/04/19 01:43:54;;;;;;;8.48;5.13;;;14.30;57.30;;;;;;5083743;28;20345;-61
2022/04/19 01:46:20;;;;;;;5.20;4.60;;;14.30;57.40;;;;;;5066920;28;20046;-60
2022/04/19 01:48:46;;;;;;;8.02;5.57;;;14.20;57.40;;;;;;5081994;28;20020;-61
2022/04/19 01:51:12;;;;;;;10.18;5.47;;;14.20;57.50;;;;;;5082966;28;20055;-60
2022/04/19 01:53:37;;;;;;;6.63;4.85;;;14.20;57.60;;;;;;5067266;28;20518;-61
2022/04/19 01:56:03;;;;;;;7.10;5.35;;;14.10;57.60;;;;;;5049144;28;20063;-61
2022/04/19 01:58:29;;;;;;;9.88;4.60;;;14.10;57.70;;;;;;5083465;28;20036;-61
2022/04/19 02:00:54;;;;;;;9.20;5.38;;;14.10;57.70;;;;;;5083684;28;20063;-60
2022/04/19 02:03:20;;;;;;;6.40;4.57;;;14.00;57.70;;;;;;5084456;28;20379;-61
2022/04/19 02:05:46;;;;;;;8.02;4.88;;;14.10;57.80;;;;;;5085240;28;20478;-60
2022/04/19 02:08:11;;;;;;;4.68;4.25;;;14.10;57.80;;;;;;5083800;28;20035;-60
2022/04/19 02:10:37;;;;;;;6.05;4.57;;;14.10;57.80;;;;;;5062931;28;20095;-61
2022/04/19 02:13:03;;;;;;;6.60;4.18;;;14.00;57.80;;;;;;5084529;28;20032;-61
2022/04/19 02:15:29;;;;;;;6.03;4.47;;;14.00;58.00;;;;;;5085833;28;20012;-60
2022/04/19 02:17:54;;;;;;;7.72;4.65;;;13.90;58.00;;;;;;5084985;28;20044;-61
2022/04/19 02:20:20;;;;;;;5.55;4.00;;;13.90;58.00;;;;;;5065021;28;20399;-60
2022/04/19 02:22:46;;;;;;;4.78;4.00;;;13.90;58.00;;;;;;5065349;28;20131;-61
2022/04/19 02:25:13;;;;;;;9.48;3.88;;;13.90;58.10;;;;;;5064234;28;20761;-61
2022/04/19 02:27:40;;;;;;;6.43;3.97;;;13.90;58.20;;;;;;5082520;28;20413;-61
2022/04/19 02:30:14;;;;;;;9.57;4.13;;;13.80;58.20;;;;;;5063113;28;20036;-60
2022/04/19 02:32:46;;;;;;;5.43;3.70;;;13.80;58.20;;;;;;5063675;28;20530;-61
2022/04/19 02:35:17;;;;;;;6.45;4.20;;;13.80;58.30;;;;;;5068888;28;20078;-61
2022/04/19 02:37:53;;;;;;;6.45;4.00;;;13.80;58.40;;;;;;5085372;28;20024;-63
2022/04/19 02:40:19;;;;;;;;;;;13.80;58.40;;;;;;5084458;28;20028;-60
2022/04/19 02:42:45;;;;;;;7.18;4.03;;;13.80;58.50;;;;;;5085840;28;19920;-61
2022/04/19 02:45:10;;;;;;;10.27;5.82;;;13.80;58.50;;;;;;5082504;28;20097;-61
2022/04/19 02:47:36;;;;;;;7.72;5.28;;;13.70;58.60;;;;;;5083527;28;20109;-60
2022/04/19 02:50:02;;;;;;;7.72;6.45;;;13.70;58.80;;;;;;5064475;28;20026;-60
2022/04/19 02:52:27;;;;;;;8.23;5.07;;;13.60;58.70;;;;;;5064047;28;20113;-61
2022/04/19 02:54:53;;;;;;;5.90;4.07;;;13.60;58.80;;;;;;5081316;28;20012;-60
2022/04/19 02:57:19;;;;;;;6.88;3.83;;;13.60;58.90;;;;;;5083228;28;20020;-61
2022/04/19 02:59:45;;;;;;;5.97;4.28;;;13.60;59.00;;;;;;5082805;28;20411;-60
2022/04/19 03:02:11;;;;;;;8.05;3.80;;;13.50;58.90;;;;;;5084085;28;20028;-60
2022/04/19 03:04:37;;;;;;;6.43;4.10;;;13.50;59.00;;;;;;5082881;28;20036;-60
2022/04/19 03:07:05;;;;;;;7.22;4.18;;;13.50;59.00;;;;;;5064430;28;20119;-60
2022/04/19 03:09:31;;;;;;;5.65;3.88;;;13.50;59.10;;;;;;5077824;28;20037;-61
2022/04/19 03:11:56;;;;;;;5.68;3.40;;;13.50;59.20;;;;;;5082540;28;20381;-61
2022/04/19 03:14:22;;;;;;;4.97;3.75;;;13.50;59.30;;;;;;5063982;28;20027;-60
2022/04/19 03:16:47;;;;;;;6.75;3.58;;;13.40;59.30;;;;;;5081745;28;20462;-61
2022/04/19 03:19:14;;;;;;;4.63;3.47;;;13.30;59.40;;;;;;5080314;28;20059;-60
2022/04/19 03:21:40;;;;;;;5.18;3.63;;;13.40;59.40;;;;;;5064237;28;20027;-60
2022/04/19 03:29:34;;;;;;;9.85;3.83;;;13.30;59.40;;;;;;5077316;28;20047;-61
2022/04/19 03:32:00;;;;;;;4.47;3.25;;;13.40;59.60;;;;;;5060663;28;20114;-60
2022/04/19 03:34:25;;;;;;;9.00;3.50;;;13.30;59.70;;;;;;5063580;28;20412;-61
2022/04/19 03:36:52;;;;;;;9.15;4.10;;;13.30;59.80;;;;;;5081654;28;20512;-60
2022/04/19 03:39:18;;;;;;;5.47;3.45;;;13.30;59.90;;;;;;5076063;28;20044;-60
2022/04/19 03:41:43;;;;;;;10.75;3.65;;;13.20;60.00;;;;;;5078691;28;20040;-61
2022/04/19 03:44:11;;;;;;;8.73;3.55;;;13.20;60.00;;;;;;5063767;28;20347;-61
2022/04/19 03:47:21;;;;;;;6.35;3.72;;;13.20;60.00;;;;;;5063129;28;20024;-61
2022/04/19 03:49:22;;;;;;;4.97;3.83;;;13.20;60.00;;;;;;5054225;28;20055;-59
2022/04/19 03:51:47;;;;;;;7.32;3.72;;;13.20;60.00;;;;;;5081832;28;20020;-60
2022/04/19 03:54:13;;;;;;;7.50;3.70;;;13.10;60.00;;;;;;5081791;28;20132;-61
2022/04/19 03:56:39;;;;;;;7.97;3.67;;;13.10;60.10;;;;;;5082191;28;20028;-60
2022/04/19 03:59:06;;;;;;;3.47;3.05;;;13.10;60.20;;;;;;5062874;28;20047;-59
2022/04/19 04:01:31;;;;;;;5.53;3.10;;;13.10;60.20;;;;;;5065385;28;20371;-60
2022/04/19 04:03:57;;;;;;;4.22;3.20;;;13.00;60.30;;;;;;5046249;28;20044;-61
2022/04/19 04:06:22;;;;;;;4.32;3.00;;;13.00;60.40;;;;;;5081733;28;20028;-60
2022/04/19 04:08:48;;;;;;;4.88;3.22;;;12.90;60.30;;;;;;5082532;28;20020;-60
2022/04/19 04:11:13;;;;;;;5.60;3.10;;;13.00;60.50;;;;;;5065023;28;20128;-60
2022/04/19 04:13:39;;;;;;;9.07;3.47;;;12.90;60.40;;;;;;5063548;28;20036;-60
2022/04/19 04:16:04;;;;;;;5.85;3.28;;;12.90;60.50;;;;;;5061755;28;20031;-60
2022/04/19 04:18:31;;;;;;;8.27;4.13;;;12.90;60.60;;;;;;5079091;28;20617;-60
2022/04/19 04:20:56;;;;;;;5.30;4.10;;;12.90;60.60;;;;;;5062889;28;20542;-60
2022/04/19 04:23:22;;;;;;;7.13;3.83;;;12.80;60.60;;;;;;5079325;28;20144;-60
2022/04/19 04:25:47;;;;;;;6.95;3.80;;;12.80;60.60;;;;;;5080155;28;20039;-60
2022/04/19 04:28:13;;;;;;;5.75;3.78;;;12.80;60.60;;;;;;5063458;28;20040;-60
2022/04/19 04:30:38;;;;;;;45.95;8.90;;;12.80;60.70;;;;;;5079613;28;20081;-61
2022/04/19 04:33:04;;;;;;;63.33;9.35;;;12.70;60.80;;;;;;5083811;28;20048;-61
2022/04/19 04:35:29;;;;;;;38.47;6.68;;;12.70;60.80;;;;;;5046733;28;20418;-60
2022/04/19 04:37:55;;;;;;;25.35;5.70;;;12.70;60.90;;;;;;5062013;28;20114;-60
2022/04/19 04:40:20;;;;;;;29.13;5.70;;;12.70;60.90;;;;;;5064072;28;20040;-60
2022/04/19 04:42:46;;;;;;;28.23;5.88;;;12.70;61.00;;;;;;5063533;28;20048;-60
2022/04/19 04:45:11;;;;;;;27.05;6.03;;;12.60;60.90;;;;;;5061644;28;20475;-60
2022/04/19 04:50:21;;;;;;;16.23;5.22;;;12.60;61.00;;;;;;5079331;28;20034;-60
2022/04/19 04:52:48;;;;;;;18.35;4.95;;;12.60;61.10;;;;;;5064715;28;20028;-60
2022/04/19 04:55:13;;;;;;;24.60;4.75;;;12.60;61.20;;;;;;5081600;28;20016;-61
2022/04/19 04:57:39;;;;;;;18.85;5.05;;;12.60;61.10;;;;;;5082028;28;20035;-61
2022/04/19 05:00:05;;;;;;;25.17;4.55;;;12.60;61.10;;;;;;5061472;28;20033;-60
2022/04/19 05:02:31;;;;;;;25.42;4.43;;;12.60;61.20;;;;;;5062084;28;20378;-61
2022/04/19 05:04:56;;;;;;;17.13;4.88;;;12.60;61.30;;;;;;5063068;28;20028;-60
2022/04/19 05:07:22;;;;;;;16.45;5.03;;;12.50;61.10;;;;;;5080835;28;20036;-60
2022/04/19 05:09:48;;;;;;;17.88;4.50;;;12.50;61.20;;;;;;5062258;28;20354;-60
2022/04/19 05:12:13;;;;;;;16.17;4.28;;;12.50;61.30;;;;;;5062659;28;20320;-61
2022/04/19 05:14:39;;;;;;;9.82;4.07;;;12.50;61.30;;;;;;5081216;28;20032;-61
2022/04/19 05:17:04;;;;;;;16.92;4.00;;;12.50;61.40;;;;;;5048245;28;20044;-60
2022/04/19 05:19:30;;;;;;;12.02;4.15;;;12.50;61.40;;;;;;5080139;28;20055;-61
2022/04/19 05:21:55;;;;;;;13.35;4.43;;;12.50;61.50;;;;;;5082964;28;20028;-60
2022/04/19 05:24:21;;;;;;;17.23;4.25;;;12.50;61.70;;;;;;5080266;28;20223;-61
2022/04/19 05:26:46;;;;;;;13.90;3.88;;;12.30;61.80;;;;;;5044423;28;20040;-59
2022/04/19 05:29:12;;;;;;;15.88;4.88;;;12.40;61.80;;;;;;5079718;28;20071;-60
2022/04/19 05:31:38;;;;;;;10.10;3.83;;;12.40;62.00;;;;;;5046447;28;20496;-60
2022/04/19 05:34:03;;;;;;;10.68;3.83;;;12.40;62.30;;;;;;5046809;28;20066;-61
2022/04/19 05:36:29;;;;;;;8.93;3.60;;;12.40;62.30;;;;;;5063134;28;20040;-60
2022/04/19 05:38:55;;;;;;;18.73;4.13;;;12.30;62.30;;;;;;5064433;28;20024;-61
2022/04/19 05:41:20;;;;;;;15.55;3.83;;;12.30;62.50;;;;;;5082018;28;20170;-60
2022/04/19 05:43:47;;;;;;;17.45;4.15;;;12.30;62.50;;;;;;5066950;28;20024;-61
2022/04/19 05:46:12;;;;;;;13.25;4.35;;;12.30;62.60;;;;;;5084142;28;20038;-60
2022/04/19 05:48:38;;;;;;;14.55;4.05;;;12.30;62.70;;;;;;5065260;28;20506;-61
2022/04/19 05:51:03;;;;;;;10.00;3.90;;;12.20;62.70;;;;;;5048602;28;20430;-60
2022/04/19 05:53:29;;;;;;;19.45;4.20;;;12.20;62.80;;;;;;5065539;28;20036;-60
2022/04/19 05:55:54;;;;;;;12.20;3.80;;;12.20;62.90;;;;;;5080858;28;20762;-61
2022/04/19 05:58:20;;;;;;;10.35;4.05;;;12.20;62.80;;;;;;5065349;28;20043;-60
2022/04/19 06:00:45;;;;;;;11.05;3.75;;;12.20;62.60;;;;;;5063173;28;20063;-60
2022/04/19 06:05:55;;;;;;;13.32;3.85;;;12.30;62.70;;;;;;5068773;28;20058;-61
2022/04/19 06:08:21;;;;;;;14.57;3.25;;;12.20;62.60;;;;;;5083180;28;20077;-61
2022/04/19 06:10:48;;;;;;;9.00;3.50;;;12.20;62.60;;;;;;5081631;28;20099;-60
2022/04/19 06:13:13;;;;;;;8.45;3.47;;;12.20;62.60;;;;;;5083141;28;20039;-60
2022/04/19 06:15:39;;;;;;;9.07;3.55;;;12.20;62.70;;;;;;5082687;28;20198;-60
2022/04/19 06:18:05;;;;;;;7.78;3.22;;;12.10;62.70;;;;;;5062572;28;21120;-60
2022/04/19 06:20:30;;;;;;;8.63;3.40;;;12.10;62.80;;;;;;5082045;28;20074;-60
2022/04/19 06:22:55;;;;;;;9.88;3.40;;;12.10;62.90;;;;;;5082304;28;20035;-61
2022/04/19 06:25:21;;;;;;;8.93;3.58;;;12.10;62.90;;;;;;5082299;28;20122;-60
2022/04/19 06:27:47;;;;;;;10.45;3.53;;;12.10;63.00;;;;;;5081995;28;20025;-61
2022/04/19 06:30:12;;;;;;;10.57;3.00;;;12.10;63.10;;;;;;5083242;28;20031;-60
2022/04/19 06:32:38;;;;;;;7.13;3.53;;;12.10;63.10;;;;;;5063864;28;20052;-60
2022/04/19 06:35:04;;;;;;;14.82;3.55;;;12.10;63.20;;;;;;5063584;28;20039;-59
2022/04/19 06:37:30;;;;;;;11.25;3.30;;;12.10;63.20;;;;;;5062582;28;20047;-60
2022/04/19 06:40:02;;;;;;;6.15;3.30;;;12.10;63.20;;;;;;5047778;28;20028;-60
2022/04/19 06:42:28;;;;;;;5.15;3.22;;;12.10;63.20;;;;;;5062934;28;20139;-60
2022/04/19 06:44:53;;;;;;;10.45;3.35;;;12.10;63.30;;;;;;5081194;28;20518;-60
2022/04/19 06:47:19;;;;;;;7.88;3.15;;;12.10;63.40;;;;;;5083137;28;20031;-60
2022/04/19 06:49:45;;;;;;;12.98;3.63;;;12.00;63.40;;;;;;5081235;28;20206;-59
2022/04/19 06:52:10;;;;;;;19.55;4.05;;;12.00;63.40;;;;;;5081750;28;20024;-60
2022/04/19 06:54:36;;;;;;;13.27;4.05;;;12.00;63.50;;;;;;5082895;28;20028;-60
2022/04/19 06:57:01;;;;;;;17.95;4.47;;;12.10;63.60;;;;;;5082490;28;20074;-60
2022/04/19 06:59:27;;;;;;;19.60;5.05;;;12.10;63.50;;;;;;5061095;28;20073;-60
2022/04/19 07:01:53;;;;;;;19.92;4.78;;;12.00;63.50;;;;;;5062017;28;20313;-61
2022/04/19 07:04:18;;;;;;;26.92;4.65;;;12.00;63.60;;;;;;5080101;28;20451;-60
2022/04/19 07:06:43;;;;;;;19.48;4.70;;;12.00;63.50;;;;;;5082239;28;20038;-60
2022/04/19 07:09:09;;;;;;;19.90;4.38;;;12.00;63.50;;;;;;5062738;28;20035;-60
2022/04/19 07:11:36;;;;;;;27.33;5.60;;;12.00;63.60;;;;;;5063427;28;20032;-60
2022/04/19 07:14:03;;;;;;;23.23;4.72;;;12.00;63.50;;;;;;5062188;28;20039;-60
2022/04/19 07:16:28;;;;;;;28.80;5.95;;;12.00;63.60;;;;;;5082942;28;20435;-61
2022/04/19 07:18:54;;;;;;;57.80;7.03;;;12.00;63.70;;;;;;5080946;28;20032;-60
2022/04/19 07:26:48;;;;;;;28.25;5.75;;;12.10;63.60;;;;;;5081261;28;20050;-60
2022/04/19 07:29:18;;;;;;;29.90;5.47;;;12.10;63.60;;;;;;5061035;28;20024;-59
2022/04/19 07:31:44;;;;;;;37.28;6.18;;;12.10;63.80;;;;;;5072062;28;20135;-61
2022/04/19 07:34:10;;;;;;;28.15;5.30;;;12.10;63.80;;;;;;5060603;28;20024;-60
2022/04/19 07:36:42;;;;;;;26.70;4.82;;;12.10;63.70;;;;;;5060278;28;20511;-61
2022/04/19 07:39:12;;;;;;;29.48;6.32;;;12.00;63.70;;;;;;5028068;28;20037;-60
2022/04/19 07:41:37;;;;;;;23.00;5.72;;;12.10;63.60;;;;;;5062270;28;20456;-61
2022/04/19 07:44:04;;;;;;;32.35;6.05;;;12.10;63.40;;;;;;5044229;28;20039;-59
2022/04/19 07:46:30;;;;;;;45.47;7.15;;;12.10;63.20;;;;;;5045367;28;20466;-60
2022/04/19 07:48:56;;;;;;;23.90;6.40;;;12.10;63.20;;;;;;5044868;28;20033;-61
2022/04/19 07:51:22;;;;;;;32.53;6.03;;;12.10;63.20;;;;;;5040038;28;20122;-60
2022/04/19 07:53:47;;;;;;;25.35;5.80;;;12.10;63.20;;;;;;5043652;28;20396;-60
2022/04/19 07:56:13;;;;;;;24.70;6.00;;;12.10;63.30;;;;;;5046081;28;20030;-60
2022/04/19 07:58:39;;;;;;;26.70;5.50;;;12.20;63.20;;;;;;5045122;28;20147;-59
2022/04/19 08:01:04;;;;;;;20.10;5.22;;;12.10;63.20;;;;;;5033416;28;20033;-59
2022/04/19 08:03:30;;;;;;;21.30;5.97;;;12.20;63.20;;;;;;5050167;28;20040;-60
2022/04/19 08:05:56;;;;;;;25.58;5.75;;;12.20;63.30;;;;;;5058951;28;20169;-60
2022/04/19 08:08:21;;;;;;;39.20;6.57;;;12.20;63.10;;;;;;5039509;28;20127;-61
2022/04/19 08:10:47;;;;;;;19.83;4.68;;;12.20;63.10;;;;;;5039488;28;20111;-60
2022/04/19 08:13:13;;;;;;;25.00;5.13;;;12.20;63.20;;;;;;5059526;28;20109;-60
2022/04/19 08:15:39;;;;;;;29.92;5.25;;;12.20;63.50;;;;;;5059273;28;20104;-60
2022/04/19 08:18:04;;;;;;;19.50;5.47;;;12.20;63.90;;;;;;5055167;28;20041;-61
2022/04/19 08:20:30;;;;;;;18.55;5.10;;;12.20;63.60;;;;;;5054323;28;20045;-60
2022/04/19 08:22:56;;;;;;;43.53;7.38;;;12.20;63.50;;;;;;5048395;28;21253;-60
2022/04/19 08:25:22;;;;;;;65.97;9.27;;;12.20;63.50;;;;;;5057269;28;20125;-61
2022/04/19 08:27:47;;;;;;;31.08;6.07;;;12.30;63.60;;;;;;5054284;28;20036;-60
2022/04/19 08:30:13;;;;;;;28.92;6.25;;;12.30;63.50;;;;;;5053543;28;20096;-60
2022/04/19 08:32:39;;;;;;;21.33;5.80;;;12.30;63.50;;;;;;5052897;28;20140;-60
2022/04/19 08:35:05;;;;;;;24.02;5.03;;;12.30;63.50;;;;;;5048309;28;20673;-61
2022/04/19 08:37:32;;;;;;;17.42;5.32;;;12.30;63.50;;;;;;5072115;28;20387;-61
2022/04/19 08:39:57;;;;;;;13.98;3.83;;;12.30;63.60;;;;;;5058808;28;20032;-61
2022/04/19 08:42:23;;;;;;;11.45;4.50;;;12.30;63.50;;;;;;5077285;28;20059;-60
2022/04/19 08:44:48;;;;;;;18.15;5.05;;;12.30;63.70;;;;;;5076765;28;20059;-60
2022/04/19 08:47:14;;;;;;;16.13;4.18;;;12.30;63.80;;;;;;5073708;28;20070;-60
2022/04/19 08:49:41;;;;;;;17.38;5.15;;;12.30;63.70;;;;;;5023655;28;20482;-61
2022/04/19 08:52:06;;;;;;;15.95;4.78;;;12.40;63.70;;;;;;5040011;28;20372;-60
2022/04/19 08:57:32;;;;;;;12.75;4.40;;;12.40;64.00;;;;;;5059277;28;20134;-61
2022/04/19 08:59:59;;;;;;;27.48;4.25;;;12.40;63.90;;;;;;5031607;28;20028;-60
2022/04/19 09:02:25;;;;;;;21.98;5.20;;;12.50;64.10;;;;;;5054319;28;20028;-60
2022/04/19 09:04:52;;;;;;;352.90;36.60;;;12.50;64.00;;;;;;5069858;28;20496;-59
2022/04/19 09:07:17;;;;;;;82.18;9.45;;;12.50;64.20;;;;;;5080161;28;21403;-61
2022/04/19 09:09:56;;;;;;;124.18;12.95;;;12.50;64.10;;;;;;5072282;28;20035;-61
2022/04/19 09:12:21;;;;;;;34.90;7.13;;;12.60;64.00;;;;;;5064218;28;20028;-60
2022/04/19 09:14:58;;;;;;;83.78;9.45;;;12.60;63.70;;;;;;5079482;28;20037;-61
2022/04/19 09:17:40;;;;;;;78.82;11.27;;;12.60;63.40;;;;;;5063492;28;20085;-60
2022/04/19 09:20:18;;;;;;;46.47;8.07;;;12.60;63.40;;;;;;5059470;28;20110;-60
2022/04/19 09:22:44;;;;;;;29.33;5.93;;;12.70;63.60;;;;;;5075673;28;20122;-61
2022/04/19 09:25:17;;;;;;;33.63;5.13;;;12.70;63.50;;;;;;5074847;28;20400;-60
2022/04/19 09:27:43;;;;;;;30.63;4.55;;;12.70;63.40;;;;;;5049886;28;20044;-61
2022/04/19 09:30:37;;;;;;;15.70;4.70;;;12.80;63.30;;;;;;5039678;28;20036;-61
2022/04/19 09:33:15;;;;;;;17.05;4.10;;;12.80;63.30;;;;;;5044093;28;21167;-61
2022/04/19 09:35:53;;;;;;;12.35;4.60;;;12.80;63.30;;;;;;5077569;28;20040;-61
2022/04/19 09:38:31;;;;;;;20.67;4.35;;;12.90;63.10;;;;;;5067856;28;20191;-61
2022/04/19 09:40:57;;;;;;;21.48;5.15;;;12.90;63.20;;;;;;5066836;28;20044;-61
2022/04/19 09:43:23;;;;;;;19.38;4.82;;;12.90;63.40;;;;;;5080948;28;20482;-61
2022/04/19 09:45:58;;;;;;;14.57;4.65;;;13.00;63.10;;;;;;5074544;28;20115;-61
2022/04/19 09:48:32;;;;;;;23.98;5.07;;;13.00;63.10;;;;;;5075938;28;20036;-61
2022/04/19 09:51:04;;;;;;;22.73;4.65;;;13.00;63.00;;;;;;5061314;28;20033;-60
2022/04/19 09:53:37;;;;;;;16.00;4.97;;;13.00;62.80;;;;;;5080737;28;20361;-61
2022/04/19 09:56:23;;;;;;;23.40;5.32;;;13.10;62.80;;;;;;5055358;28;20060;-60
2022/04/19 09:58:50;;;;;;;26.63;5.28;;;13.10;62.80;;;;;;5062044;28;20123;-61
2022/04/19 10:09:36;;;;;;;59.42;7.82;;;13.30;62.30;;;;;;5050854;28;20043;-60
2022/04/19 10:12:06;;;;;;;40.60;6.30;;;13.30;62.10;;;;;;5060675;28;20118;-60
2022/04/19 10:14:32;;;;;;;47.83;6.50;;;13.40;62.00;;;;;;5063264;28;20517;-61
2022/04/19 10:16:58;;;;;;;42.60;6.78;;;13.40;62.00;;;;;;5053731;28;20032;-61
2022/04/19 10:19:23;;;;;;;30.63;6.25;;;13.40;62.00;;;;;;5057962;28;20036;-60
2022/04/19 10:21:49;;;;;;;29.05;5.18;;;13.50;61.50;;;;;;5042915;28;20096;-61
2022/04/19 10:24:15;;;;;;;28.67;6.30;;;13.50;61.00;;;;;;5048951;28;20656;-61
2022/04/19 10:26:59;;;;;;;26.75;5.18;;;13.60;60.60;;;;;;5040387;28;20128;-60
2022/04/19 10:29:30;;;;;;;23.27;5.07;;;13.70;60.30;;;;;;5037506;28;20062;-60
2022/04/19 10:32:03;;;;;;;33.42;5.78;;;13.70;60.40;;;;;;5046569;28;20138;-60
2022/04/19 10:34:30;;;;;;;28.83;6.55;;;13.80;60.30;;;;;;5053836;28;20092;-60
2022/04/19 10:36:58;;;;;;;23.52;5.22;;;13.80;60.20;;;;;;5040652;28;20119;-60
2022/04/19 10:39:32;;;;;;;16.63;4.78;;;13.90;60.10;;;;;;5052826;28;20028;-60
2022/04/19 10:42:03;;;;;;;22.60;5.03;;;13.90;59.40;;;;;;5039628;28;20042;-61
2022/04/19 10:44:40;;;;;;;25.38;4.85;;;14.00;59.00;;;;;;5052475;28;20039;-60
2022/04/19 10:47:14;;;;;;;14.45;4.60;;;14.00;59.10;;;;;;5074897;28;20048;-61
2022/04/19 10:49:56;;;;;;;28.98;5.43;;;14.10;58.70;;;;;;5049054;28;20535;-60
2022/04/19 10:55:04;;;;;;;27.67;4.82;;;14.20;58.70;;;;;;5072593;28;20207;-60
2022/04/19 11:00:33;;;;;;;15.93;4.53;;;14.30;58.30;;;;;;5042367;28;20576;-61
2022/04/19 11:03:19;;;;;;;15.93;3.95;;;14.40;58.10;;;;;;5064112;28;20039;-60
2022/04/19 11:05:52;;;;;;;14.27;3.87;;;14.40;58.00;;;;;;5066289;28;20032;-61
2022/04/19 11:08:21;;;;;;;8.70;4.03;;;14.50;57.80;;;;;;5052836;28;20727;-60
2022/04/19 11:10:47;;;;;;;11.48;3.60;;;14.60;57.50;;;;;;5068364;28;20503;-60
2022/04/19 11:13:13;;;;;;;10.45;4.03;;;14.60;57.50;;;;;;5070539;28;20035;-60
2022/04/19 11:15:38;;;;;;;16.95;4.30;;;14.70;57.60;;;;;;5075977;28;20036;-60
2022/04/19 11:18:24;;;;;;;9.60;3.40;;;14.70;57.70;;;;;;5054576;28;20051;-60
2022/04/19 11:20:50;;;;;;;10.20;3.53;;;14.80;57.40;;;;;;5056744;28;20039;-60
2022/04/19 11:23:20;;;;;;;12.95;3.70;;;14.90;57.40;;;;;;5034977;28;20039;-60
2022/04/19 11:25:46;;;;;;;11.10;3.88;;;15.00;57.30;;;;;;5059651;28;20463;-59
2022/04/19 11:28:11;;;;;;;8.13;3.38;;;15.10;56.90;;;;;;5041877;28;20036;-60
2022/04/19 11:30:49;;;;;;;7.03;3.28;;;15.10;56.20;;;;;;5079244;28;20020;-60
2022/04/19 11:33:41;;;;;;;11.88;3.70;;;15.20;56.20;;;;;;5053778;28;20047;-60
2022/04/19 11:36:08;;;;;;;14.75;3.88;;;15.30;56.40;;;;;;5046859;28;20044;-60
2022/04/19 11:38:39;;;;;;;14.25;3.25;;;15.40;56.30;;;;;;5043967;28;20036;-60
2022/04/19 11:46:47;;;;;;;16.95;3.50;;;15.60;55.40;;;;;;5060231;28;20402;-60
2022/04/19 11:49:18;;;;;;;12.90;3.17;;;15.80;55.40;;;;;;5054123;28;20118;-60
2022/04/19 11:51:52;;;;;;;23.08;3.50;;;15.70;55.50;;;;;;5078323;28;20126;-60
2022/04/19 11:54:22;;;;;;;11.02;4.10;;;15.90;56.20;;;;;;5041749;28;20209;-61
2022/04/19 11:56:55;;;;;;;26.58;4.10;;;16.00;55.20;;;;;;5074479;28;20059;-60
2022/04/19 11:59:27;;;;;;;9.85;3.03;;;16.10;55.40;;;;;;5055616;28;20035;-60
2022/04/19 12:01:53;;;;;;;9.95;2.80;;;16.20;54.70;;;;;;5059866;28;20183;-60
2022/04/19 12:04:19;;;;;;;12.07;3.10;;;16.30;54.60;;;;;;5076309;28;20028;-61
2022/04/19 12:06:56;;;;;;;12.80;2.70;;;16.30;54.80;;;;;;5077174;28;20509;-60
2022/04/19 12:09:22;;;;;;;13.38;2.80;;;16.40;55.00;;;;;;5074844;28;20041;-60
2022/04/19 12:11:48;;;;;;;6.85;3.15;;;16.50;55.00;;;;;;5041941;28;20024;-61
2022/04/19 12:14:24;;;;;;;15.88;3.05;;;16.50;54.40;;;;;;5054536;28;20055;-61
2022/04/19 12:17:00;;;;;;;8.70;2.92;;;16.60;54.60;;;;;;5058995;28;20281;-61
2022/04/19 12:19:34;;;;;;;14.35;2.95;;;16.60;53.80;;;;;;5058719;28;20501;-61
2022/04/19 12:21:59;;;;;;;9.68;3.08;;;16.80;53.90;;;;;;5077338;28;20060;-61
2022/04/19 12:24:26;;;;;;;15.30;2.78;;;16.90;54.40;;;;;;5056877;28;20410;-61
2022/04/19 12:27:03;;;;;;;11.73;2.50;;;16.90;54.20;;;;;;5057131;28;20118;-61
2022/04/19 12:29:28;;;;;;;13.80;2.70;;;17.00;53.80;;;;;;5056429;28;20055;-61
2022/04/19 12:31:56;;;;;;;9.13;2.80;;;17.10;53.70;;;;;;5074949;28;20525;-61
2022/04/19 12:34:30;;;;;;;7.75;2.78;;;17.20;53.60;;;;;;5057511;28;20031;-62
2022/04/19 12:37:07;;;;;;;7.72;2.30;;;17.20;53.50;;;;;;5061537;28;20452;-60
2022/04/19 12:39:32;;;;;;;10.63;2.45;;;17.30;53.70;;;;;;5080145;28;20016;-61
2022/04/19 12:42:07;;;;;;;13.50;2.65;;;17.40;53.60;;;;;;5051248;28;20036;-60
2022/04/19 12:44:34;;;;;;;11.00;2.35;;;17.50;53.20;;;;;;5049321;28;20365;-61
2022/04/19 12:47:01;;;;;;;13.10;2.70;;;17.50;53.40;;;;;;5080234;28;20071;-61
2022/04/19 12:49:31;;;;;;;15.23;2.40;;;17.60;53.10;;;;;;5063961;28;20040;-61
2022/04/19 12:52:06;;;;;;;6.70;2.47;;;17.70;53.10;;;;;;5083693;28;20039;-61
2022/04/19 12:54:33;;;;;;;17.98;3.05;;;17.80;53.00;;;;;;5084833;28;20031;-60
2022/04/19 12:57:02;;;;;;;10.48;2.50;;;17.80;52.80;;;;;;5031439;28;20038;-61
2022/04/19 12:59:29;;;;;;;18.77;4.05;;;17.90;52.40;;;;;;5063050;28;20093;-60
2022/04/19 13:01:55;;;;;;;23.70;3.63;;;18.00;52.50;;;;;;5064305;28;20036;-61
2022/04/19 13:04:20;;;;;;;26.30;3.63;;;18.10;52.80;;;;;;5060171;28;20540;-61
2022/04/19 13:12:17;;;;;;;36.63;6.63;;;18.40;52.70;;;;;;5083461;28;20043;-61
2022/04/19 13:14:43;;;;;;;55.15;8.23;;;18.50;52.70;;;;;;5075433;28;20047;-62
2022/04/19 13:17:12;;;;;;;61.42;8.38;;;18.70;52.60;;;;;;5084416;28;20043;-61
2022/04/19 13:19:44;;;;;;;58.28;8.20;;;18.70;52.40;;;;;;5041396;28;20032;-61
2022/04/19 13:22:10;;;;;;;67.65;8.38;;;18.80;52.60;;;;;;5070602;28;20040;-61
2022/04/19 13:24:36;;;;;;;76.30;9.85;;;18.80;52.10;;;;;;5071985;28;20613;-61
2022/04/19 13:27:03;;;;;;;87.03;9.77;;;18.90;52.10;;;;;;5077997;28;20075;-61
2022/04/19 13:29:29;;;;;;;92.18;10.77;;;19.00;51.80;;;;;;5060622;28;20515;-61